sensor_id;sensor_type;location;lat;lon;timestamp;pressure;altitude;pressure_sealevel;temperature;humidity
11314;BME280;5712;48.858;9.206;2023-04-30T00:00:14;98447.34;;;11.73;100.00
11314;BME280;5712;48.858;9.206;2023-04-30T00:02:41;98457.19;;;11.71;100.00
11314;BME280;5712;48.858;9.206;2023-04-30T00:05:09;98457.50;;;11.66;100.00
11314;BME280;5712;48.858;9.206;2023-04-30T00:07:35;98466.50;;;11.64;100.00
11314;BME280;5712;48.858;9.206;2023-04-30T00:10:07;98459.25;;;11.53;100.00
11314;BME280;5712;48.858;9.206;2023-04-30T00:12:34;98472.41;;;11.55;100.00
11314;BME280;5712;48.858;9.206;2023-04-30T00:15:00;98467.84;;;11.57;100.00
11314;BME280;5712;48.858;9.206;2023-04-30T00:17:27;98457.19;;;11.58;100.00
11314;BME280;5712;48.858;9.206;2023-04-30T00:19:54;98462.25;;;11.61;100.00
11314;BME280;5712;48.858;9.206;2023-04-30T00:22:21;98459.72;;;11.60;100.00
11314;BME280;5712;48.858;9.206;2023-04-30T00:24:48;98463.69;;;11.53;100.00
11314;BME280;5712;48.858;9.206;2023-04-30T00:27:14;98466.03;;;11.45;100.00
11314;BME280;5712;48.858;9.206;2023-04-30T00:29:41;98463.47;;;11.43;100.00
11314;BME280;5712;48.858;9.206;2023-04-30T00:32:07;98471.72;;;11.39;100.00
11314;BME280;5712;48.858;9.206;2023-04-30T00:34:34;98467.72;;;11.46;100.00
11314;BME280;5712;48.858;9.206;2023-04-30T00:37:00;98463.56;;;11.42;100.00
11314;BME280;5712;48.858;9.206;2023-04-30T00:39:29;98460.19;;;11.40;100.00
11314;BME280;5712;48.858;9.206;2023-04-30T00:41:55;98460.72;;;11.45;100.00
11314;BME280;5712;48.858;9.206;2023-04-30T00:44:22;98465.06;;;11.46;100.00
11314;BME280;5712;48.858;9.206;2023-04-30T00:46:48;98465.63;;;11.51;100.00
11314;BME280;5712;48.858;9.206;2023-04-30T00:49:15;98468.34;;;11.49;100.00
11314;BME280;5712;48.858;9.206;2023-04-30T00:51:42;98469.81;;;11.41;100.00
11314;BME280;5712;48.858;9.206;2023-04-30T00:54:10;98477.88;;;11.39;100.00
11314;BME280;5712;48.858;9.206;2023-04-30T00:56:38;98469.81;;;11.41;100.00
11314;BME280;5712;48.858;9.206;2023-04-30T00:59:05;98476.47;;;11.34;100.00
11314;BME280;5712;48.858;9.206;2023-04-30T01:01:31;98478.06;;;11.36;100.00
11314;BME280;5712;48.858;9.206;2023-04-30T01:03:58;98482.09;;;11.29;100.00
11314;BME280;5712;48.858;9.206;2023-04-30T01:06:25;98472.13;;;11.33;100.00
11314;BME280;5712;48.858;9.206;2023-04-30T01:08:52;98472.78;;;11.36;100.00
11314;BME280;5712;48.858;9.206;2023-04-30T01:11:24;98470.22;;;11.35;100.00
11314;BME280;5712;48.858;9.206;2023-04-30T01:13:57;98471.91;;;11.36;100.00
11314;BME280;5712;48.858;9.206;2023-04-30T01:16:29;98470.63;;;11.29;100.00
11314;BME280;5712;48.858;9.206;2023-04-30T01:19:01;98469.94;;;11.39;100.00
11314;BME280;5712;48.858;9.206;2023-04-30T01:21:31;98469.19;;;11.37;100.00
11314;BME280;5712;48.858;9.206;2023-04-30T01:24:19;98473.81;;;11.21;100.00
11314;BME280;5712;48.858;9.206;2023-04-30T01:27:06;98467.16;;;11.28;100.00
11314;BME280;5712;48.858;9.206;2023-04-30T01:29:36;98473.69;;;11.23;100.00
11314;BME280;5712;48.858;9.206;2023-04-30T01:32:04;98472.56;;;11.27;100.00
11314;BME280;5712;48.858;9.206;2023-04-30T01:34:31;98465.56;;;11.26;100.00
11314;BME280;5712;48.858;9.206;2023-04-30T01:37:07;98466.16;;;11.17;100.00
11314;BME280;5712;48.858;9.206;2023-04-30T01:39:49;98468.06;;;11.15;100.00
11314;BME280;5712;48.858;9.206;2023-04-30T01:42:26;98467.63;;;11.08;100.00
11314;BME280;5712;48.858;9.206;2023-04-30T01:45:17;98469.22;;;11.11;100.00
11314;BME280;5712;48.858;9.206;2023-04-30T01:47:51;98467.22;;;11.14;100.00
11314;BME280;5712;48.858;9.206;2023-04-30T01:50:31;98459.59;;;11.10;100.00
11314;BME280;5712;48.858;9.206;2023-04-30T01:53:01;98455.25;;;11.09;100.00
11314;BME280;5712;48.858;9.206;2023-04-30T01:55:35;98457.88;;;11.09;100.00
11314;BME280;5712;48.858;9.206;2023-04-30T01:58:05;98460.09;;;11.02;100.00
11314;BME280;5712;48.858;9.206;2023-04-30T02:00:34;98461.91;;;11.02;100.00
11314;BME280;5712;48.858;9.206;2023-04-30T02:03:00;98465.38;;;11.02;100.00
11314;BME280;5712;48.858;9.206;2023-04-30T02:05:27;98464.63;;;11.00;100.00
11314;BME280;5712;48.858;9.206;2023-04-30T02:07:53;98470.56;;;11.04;100.00
11314;BME280;5712;48.858;9.206;2023-04-30T02:10:22;98458.28;;;11.03;100.00
11314;BME280;5712;48.858;9.206;2023-04-30T02:12:49;98450.66;;;10.98;100.00
11314;BME280;5712;48.858;9.206;2023-04-30T02:15:16;98456.44;;;10.91;100.00
11314;BME280;5712;48.858;9.206;2023-04-30T02:17:44;98464.19;;;10.94;100.00
11314;BME280;5712;48.858;9.206;2023-04-30T02:20:11;98448.72;;;10.88;100.00
11314;BME280;5712;48.858;9.206;2023-04-30T02:22:37;98454.44;;;10.82;100.00
11314;BME280;5712;48.858;9.206;2023-04-30T02:25:04;98453.56;;;10.81;100.00
11314;BME280;5712;48.858;9.206;2023-04-30T02:27:31;98460.34;;;10.85;100.00
11314;BME280;5712;48.858;9.206;2023-04-30T02:29:58;98458.53;;;10.86;100.00
11314;BME280;5712;48.858;9.206;2023-04-30T02:32:25;98450.22;;;10.92;100.00
11314;BME280;5712;48.858;9.206;2023-04-30T02:34:53;98442.50;;;10.89;100.00
11314;BME280;5712;48.858;9.206;2023-04-30T02:37:19;98448.53;;;10.91;100.00
11314;BME280;5712;48.858;9.206;2023-04-30T02:39:47;98445.97;;;10.89;100.00
11314;BME280;5712;48.858;9.206;2023-04-30T02:42:13;98440.91;;;10.86;100.00
11314;BME280;5712;48.858;9.206;2023-04-30T02:44:40;98443.22;;;10.91;100.00
11314;BME280;5712;48.858;9.206;2023-04-30T02:47:07;98442.50;;;10.89;100.00
11314;BME280;5712;48.858;9.206;2023-04-30T02:49:34;98448.19;;;10.83;100.00
11314;BME280;5712;48.858;9.206;2023-04-30T02:52:02;98441.72;;;10.87;100.00
11314;BME280;5712;48.858;9.206;2023-04-30T02:54:28;98442.53;;;10.75;100.00
11314;BME280;5712;48.858;9.206;2023-04-30T02:56:55;98452.44;;;10.71;100.00
11314;BME280;5712;48.858;9.206;2023-04-30T02:59:21;98442.75;;;10.72;100.00
11314;BME280;5712;48.858;9.206;2023-04-30T03:01:48;98445.94;;;10.77;100.00
11314;BME280;5712;48.858;9.206;2023-04-30T03:04:14;98447.63;;;10.78;100.00
11314;BME280;5712;48.858;9.206;2023-04-30T03:06:41;98441.38;;;10.79;100.00
11314;BME280;5712;48.858;9.206;2023-04-30T03:09:08;98441.59;;;10.76;100.00
11314;BME280;5712;48.858;9.206;2023-04-30T03:11:35;98440.84;;;10.74;100.00
11314;BME280;5712;48.858;9.206;2023-04-30T03:14:02;98444.66;;;10.70;100.00
11314;BME280;5712;48.858;9.206;2023-04-30T03:16:28;98449.06;;;10.69;100.00
11314;BME280;5712;48.858;9.206;2023-04-30T03:18:56;98441.13;;;10.69;100.00
11314;BME280;5712;48.858;9.206;2023-04-30T03:21:22;98445.13;;;10.62;100.00
11314;BME280;5712;48.858;9.206;2023-04-30T03:23:49;98442.22;;;10.53;100.00
11314;BME280;5712;48.858;9.206;2023-04-30T03:26:17;98445.63;;;10.55;100.00
11314;BME280;5712;48.858;9.206;2023-04-30T03:28:43;98443.72;;;10.57;100.00
11314;BME280;5712;48.858;9.206;2023-04-30T03:31:10;98448.72;;;10.47;100.00
11314;BME280;5712;48.858;9.206;2023-04-30T03:33:36;98452.34;;;10.46;100.00
11314;BME280;5712;48.858;9.206;2023-04-30T03:36:03;98449.81;;;10.45;100.00
11314;BME280;5712;48.858;9.206;2023-04-30T03:38:29;98445.44;;;10.44;100.00
11314;BME280;5712;48.858;9.206;2023-04-30T03:40:56;98451.69;;;10.43;100.00
11314;BME280;5712;48.858;9.206;2023-04-30T03:43:24;98448.09;;;10.44;100.00
11314;BME280;5712;48.858;9.206;2023-04-30T03:45:50;98454.41;;;10.41;100.00
11314;BME280;5712;48.858;9.206;2023-04-30T03:48:17;98453.38;;;10.44;100.00
11314;BME280;5712;48.858;9.206;2023-04-30T03:50:43;98456.78;;;10.46;100.00
11314;BME280;5712;48.858;9.206;2023-04-30T03:53:10;98454.13;;;10.46;100.00
11314;BME280;5712;48.858;9.206;2023-04-30T03:55:37;98450.94;;;10.41;100.00
11314;BME280;5712;48.858;9.206;2023-04-30T03:58:04;98453.97;;;10.35;100.00
11314;BME280;5712;48.858;9.206;2023-04-30T04:00:32;98455.88;;;10.33;100.00
11314;BME280;5712;48.858;9.206;2023-04-30T04:02:58;98456.25;;;10.27;100.00
11314;BME280;5712;48.858;9.206;2023-04-30T04:05:25;98455.47;;;10.25;100.00
11314;BME280;5712;48.858;9.206;2023-04-30T04:07:51;98449.63;;;10.20;100.00
11314;BME280;5712;48.858;9.206;2023-04-30T04:10:18;98453.22;;;10.19;100.00
11314;BME280;5712;48.858;9.206;2023-04-30T04:12:44;98459.16;;;10.22;100.00
11314;BME280;5712;48.858;9.206;2023-04-30T04:15:11;98459.38;;;10.19;100.00
11314;BME280;5712;48.858;9.206;2023-04-30T04:17:39;98457.09;;;10.13;100.00
11314;BME280;5712;48.858;9.206;2023-04-30T04:20:07;98468.72;;;10.11;100.00
11314;BME280;5712;48.858;9.206;2023-04-30T04:22:33;98476.63;;;10.11;100.00
11314;BME280;5712;48.858;9.206;2023-04-30T04:25:00;98470.59;;;10.09;100.00
11314;BME280;5712;48.858;9.206;2023-04-30T04:27:26;98473.69;;;10.15;100.00
11314;BME280;5712;48.858;9.206;2023-04-30T04:29:53;98469.06;;;10.19;100.00
11314;BME280;5712;48.858;9.206;2023-04-30T04:32:20;98472.28;;;10.24;100.00
11314;BME280;5712;48.858;9.206;2023-04-30T04:34:48;98463.03;;;10.31;100.00
11314;BME280;5712;48.858;9.206;2023-04-30T04:37:14;98468.97;;;10.34;100.00
11314;BME280;5712;48.858;9.206;2023-04-30T04:39:41;98470.56;;;10.37;100.00
11314;BME280;5712;48.858;9.206;2023-04-30T04:42:09;98471.59;;;10.34;100.00
11314;BME280;5712;48.858;9.206;2023-04-30T04:44:35;98474.44;;;10.31;100.00
11314;BME280;5712;48.858;9.206;2023-04-30T04:47:03;98481.91;;;10.25;100.00
11314;BME280;5712;48.858;9.206;2023-04-30T04:49:30;98481.81;;;10.26;100.00
11314;BME280;5712;48.858;9.206;2023-04-30T04:51:58;98473.78;;;10.28;100.00
11314;BME280;5712;48.858;9.206;2023-04-30T04:54:26;98485.19;;;10.28;100.00
11314;BME280;5712;48.858;9.206;2023-04-30T04:56:52;98476.31;;;10.29;100.00
11314;BME280;5712;48.858;9.206;2023-04-30T04:59:19;98470.19;;;10.29;100.00
11314;BME280;5712;48.858;9.206;2023-04-30T05:01:46;98475.28;;;10.32;100.00
11314;BME280;5712;48.858;9.206;2023-04-30T05:04:12;98469.59;;;10.38;100.00
11314;BME280;5712;48.858;9.206;2023-04-30T05:06:39;98479.06;;;10.42;100.00
11314;BME280;5712;48.858;9.206;2023-04-30T05:09:08;98481.97;;;10.51;100.00
11314;BME280;5712;48.858;9.206;2023-04-30T05:11:34;98476.28;;;10.57;100.00
11314;BME280;5712;48.858;9.206;2023-04-30T05:14:01;98476.09;;;10.60;100.00
11314;BME280;5712;48.858;9.206;2023-04-30T05:16:27;98474.84;;;10.66;100.00
11314;BME280;5712;48.858;9.206;2023-04-30T05:18:54;98473.59;;;10.71;100.00
11314;BME280;5712;48.858;9.206;2023-04-30T05:21:20;98482.75;;;10.80;100.00
11314;BME280;5712;48.858;9.206;2023-04-30T05:23:47;98485.94;;;10.85;100.00
11314;BME280;5712;48.858;9.206;2023-04-30T05:26:15;98478.56;;;10.90;100.00
11314;BME280;5712;48.858;9.206;2023-04-30T05:28:41;98489.47;;;10.98;100.00
11314;BME280;5712;48.858;9.206;2023-04-30T05:31:08;98482.84;;;11.05;100.00
11314;BME280;5712;48.858;9.206;2023-04-30T05:33:34;98487.44;;;11.15;100.00
11314;BME280;5712;48.858;9.206;2023-04-30T05:36:02;98486.91;;;11.23;100.00
11314;BME280;5712;48.858;9.206;2023-04-30T05:38:28;98475.09;;;11.28;100.00
11314;BME280;5712;48.858;9.206;2023-04-30T05:40:55;98477.03;;;11.39;100.00
11314;BME280;5712;48.858;9.206;2023-04-30T05:43:23;98485.50;;;11.44;100.00
11314;BME280;5712;48.858;9.206;2023-04-30T05:45:49;98472.81;;;11.49;100.00
11314;BME280;5712;48.858;9.206;2023-04-30T05:48:16;98473.00;;;11.46;100.00
11314;BME280;5712;48.858;9.206;2023-04-30T05:50:42;98475.16;;;11.53;100.00
11314;BME280;5712;48.858;9.206;2023-04-30T05:53:09;98470.03;;;11.50;100.00
11314;BME280;5712;48.858;9.206;2023-04-30T05:55:35;98472.41;;;11.55;100.00
11314;BME280;5712;48.858;9.206;2023-04-30T05:58:02;98467.47;;;11.63;100.00
11314;BME280;5712;48.858;9.206;2023-04-30T06:00:30;98462.81;;;11.79;100.00
11314;BME280;5712;48.858;9.206;2023-04-30T06:02:56;98461.53;;;11.97;100.00
11314;BME280;5712;48.858;9.206;2023-04-30T06:05:23;98456.13;;;12.11;100.00
11314;BME280;5712;48.858;9.206;2023-04-30T06:07:49;98458.03;;;12.21;100.00
11314;BME280;5712;48.858;9.206;2023-04-30T06:10:16;98456.34;;;12.20;100.00
11314;BME280;5712;48.858;9.206;2023-04-30T06:12:42;98462.03;;;12.27;99.86
11314;BME280;5712;48.858;9.206;2023-04-30T06:15:09;98459.28;;;12.28;98.62
11314;BME280;5712;48.858;9.206;2023-04-30T06:17:37;98465.63;;;12.38;98.16
11314;BME280;5712;48.858;9.206;2023-04-30T06:20:04;98461.97;;;12.52;97.80
11314;BME280;5712;48.858;9.206;2023-04-30T06:22:31;98457.28;;;12.68;96.95
11314;BME280;5712;48.858;9.206;2023-04-30T06:24:58;98464.22;;;12.81;97.20
11314;BME280;5712;48.858;9.206;2023-04-30T06:27:25;98459.72;;;13.07;96.08
11314;BME280;5712;48.858;9.206;2023-04-30T06:29:52;98458.31;;;13.25;94.32
11314;BME280;5712;48.858;9.206;2023-04-30T06:32:18;98459.59;;;13.43;93.45
11314;BME280;5712;48.858;9.206;2023-04-30T06:34:46;98456.25;;;13.52;93.04
11314;BME280;5712;48.858;9.206;2023-04-30T06:37:12;98457.25;;;13.62;93.13
11314;BME280;5712;48.858;9.206;2023-04-30T06:39:39;98458.47;;;13.69;92.99
11314;BME280;5712;48.858;9.206;2023-04-30T06:42:05;98460.38;;;13.67;91.42
11314;BME280;5712;48.858;9.206;2023-04-30T06:44:32;98456.78;;;13.68;90.82
11314;BME280;5712;48.858;9.206;2023-04-30T06:46:58;98457.50;;;13.70;89.86
11314;BME280;5712;48.858;9.206;2023-04-30T06:49:25;98461.13;;;13.80;89.89
11314;BME280;5712;48.858;9.206;2023-04-30T06:51:53;98454.53;;;13.85;89.87
11314;BME280;5712;48.858;9.206;2023-04-30T06:54:20;98460.44;;;13.89;89.82
11314;BME280;5712;48.858;9.206;2023-04-30T06:56:48;98456.94;;;13.99;88.88
11314;BME280;5712;48.858;9.206;2023-04-30T06:59:14;98459.25;;;14.04;87.70
11314;BME280;5712;48.858;9.206;2023-04-30T07:01:42;98462.38;;;14.09;87.57
11314;BME280;5712;48.858;9.206;2023-04-30T07:04:08;98459.38;;;14.13;86.66
11314;BME280;5712;48.858;9.206;2023-04-30T07:06:35;98459.28;;;14.26;85.97
11314;BME280;5712;48.858;9.206;2023-04-30T07:09:03;98460.75;;;14.30;85.88
11314;BME280;5712;48.858;9.206;2023-04-30T07:11:29;98456.16;;;14.43;85.66
11314;BME280;5712;48.858;9.206;2023-04-30T07:13:56;98443.34;;;14.48;83.96
11314;BME280;5712;48.858;9.206;2023-04-30T07:16:23;98440.03;;;14.55;83.04
11314;BME280;5712;48.858;9.206;2023-04-30T07:18:51;98443.78;;;14.64;82.73
11314;BME280;5712;48.858;9.206;2023-04-30T07:21:18;98439.16;;;14.77;82.26
11314;BME280;5712;48.858;9.206;2023-04-30T07:23:44;98439.53;;;14.83;81.45
11314;BME280;5712;48.858;9.206;2023-04-30T07:26:12;98419.59;;;14.78;77.75
11314;BME280;5712;48.858;9.206;2023-04-30T07:28:39;98435.56;;;14.78;79.92
11314;BME280;5712;48.858;9.206;2023-04-30T07:31:06;98421.91;;;14.71;78.49
11314;BME280;5712;48.858;9.206;2023-04-30T07:33:32;98419.13;;;14.62;77.64
11314;BME280;5712;48.858;9.206;2023-04-30T07:36:02;98436.31;;;14.58;80.98
11314;BME280;5712;48.858;9.206;2023-04-30T07:38:28;98445.75;;;14.62;81.93
11314;BME280;5712;48.858;9.206;2023-04-30T07:40:55;98432.16;;;14.65;81.94
11314;BME280;5712;48.858;9.206;2023-04-30T07:43:23;98416.94;;;14.78;79.19
11314;BME280;5712;48.858;9.206;2023-04-30T07:45:49;98419.91;;;14.84;78.70
11314;BME280;5712;48.858;9.206;2023-04-30T07:48:17;98427.28;;;14.92;80.93
11314;BME280;5712;48.858;9.206;2023-04-30T07:50:46;98425.78;;;15.10;78.33
11314;BME280;5712;48.858;9.206;2023-04-30T07:53:13;98434.34;;;15.13;80.20
11314;BME280;5712;48.858;9.206;2023-04-30T07:55:39;98409.88;;;15.19;78.54
11314;BME280;5712;48.858;9.206;2023-04-30T07:58:06;98424.84;;;15.31;79.71
11314;BME280;5712;48.858;9.206;2023-04-30T08:00:34;98429.44;;;15.29;80.48
11314;BME280;5712;48.858;9.206;2023-04-30T08:03:00;98407.84;;;15.12;77.18
11314;BME280;5712;48.858;9.206;2023-04-30T08:05:27;98425.31;;;15.05;79.08
11314;BME280;5712;48.858;9.206;2023-04-30T08:07:54;98407.09;;;15.21;78.15
11314;BME280;5712;48.858;9.206;2023-04-30T08:10:20;98411.75;;;15.28;78.74
11314;BME280;5712;48.858;9.206;2023-04-30T08:12:47;98410.63;;;15.42;77.52
11314;BME280;5712;48.858;9.206;2023-04-30T08:15:13;98409.66;;;15.43;77.15
11314;BME280;5712;48.858;9.206;2023-04-30T08:17:41;98406.25;;;15.52;75.84
11314;BME280;5712;48.858;9.206;2023-04-30T08:20:08;98396.47;;;15.62;74.93
11314;BME280;5712;48.858;9.206;2023-04-30T08:22:35;98374.56;;;15.58;71.66
11314;BME280;5712;48.858;9.206;2023-04-30T08:25:01;98381.91;;;15.66;70.74
11314;BME280;5712;48.858;9.206;2023-04-30T08:27:29;98382.38;;;15.71;70.72
11314;BME280;5712;48.858;9.206;2023-04-30T08:29:56;98369.34;;;15.77;69.15
11314;BME280;5712;48.858;9.206;2023-04-30T08:32:22;98365.06;;;15.86;68.23
11314;BME280;5712;48.858;9.206;2023-04-30T08:34:50;98364.53;;;15.92;67.26
11314;BME280;5712;48.858;9.206;2023-04-30T08:37:17;98361.84;;;15.92;67.74
11314;BME280;5712;48.858;9.206;2023-04-30T08:39:43;98350.66;;;15.98;64.79
11314;BME280;5712;48.858;9.206;2023-04-30T08:42:12;98348.84;;;15.98;64.32
11314;BME280;5712;48.858;9.206;2023-04-30T08:44:39;98331.00;;;15.98;61.76
11314;BME280;5712;48.858;9.206;2023-04-30T08:47:09;98329.63;;;15.95;61.53
11314;BME280;5712;48.858;9.206;2023-04-30T08:49:39;98345.59;;;15.95;63.22
11314;BME280;5712;48.858;9.206;2023-04-30T08:52:07;98358.19;;;16.22;64.04
11314;BME280;5712;48.858;9.206;2023-04-30T08:54:35;98341.38;;;16.31;61.99
11314;BME280;5712;48.858;9.206;2023-04-30T08:57:02;98337.09;;;16.40;61.36
11314;BME280;5712;48.858;9.206;2023-04-30T08:59:28;98359.50;;;16.37;63.85
11314;BME280;5712;48.858;9.206;2023-04-30T09:01:55;98359.41;;;16.39;63.46
11314;BME280;5712;48.858;9.206;2023-04-30T09:04:21;98313.66;;;16.43;59.03
11314;BME280;5712;48.858;9.206;2023-04-30T09:06:51;98328.47;;;16.36;59.82
11314;BME280;5712;48.858;9.206;2023-04-30T09:09:19;98314.16;;;16.37;57.47
11314;BME280;5712;48.858;9.206;2023-04-30T09:11:46;98322.72;;;16.31;58.13
11314;BME280;5712;48.858;9.206;2023-04-30T09:14:12;98297.38;;;16.16;56.83
11314;BME280;5712;48.858;9.206;2023-04-30T09:16:47;98321.53;;;16.06;58.22
11314;BME280;5712;48.858;9.206;2023-04-30T09:19:22;98316.72;;;16.00;57.64
11314;BME280;5712;48.858;9.206;2023-04-30T09:21:48;98322.09;;;16.09;58.21
11314;BME280;5712;48.858;9.206;2023-04-30T09:24:15;98311.00;;;16.13;57.76
11314;BME280;5712;48.858;9.206;2023-04-30T09:26:44;98330.59;;;16.33;59.38
11314;BME280;5712;48.858;9.206;2023-04-30T09:29:12;98344.44;;;16.57;60.40
11314;BME280;5712;48.858;9.206;2023-04-30T09:31:41;98344.72;;;16.82;60.32
11314;BME280;5712;48.858;9.206;2023-04-30T09:34:08;98320.00;;;16.90;57.52
11314;BME280;5712;48.858;9.206;2023-04-30T09:36:35;98280.81;;;16.90;54.35
11314;BME280;5712;48.858;9.206;2023-04-30T09:39:05;98302.28;;;16.98;55.06
11314;BME280;5712;48.858;9.206;2023-04-30T09:41:34;98324.78;;;16.96;57.58
11314;BME280;5712;48.858;9.206;2023-04-30T09:44:02;98323.66;;;16.98;56.99
11314;BME280;5712;48.858;9.206;2023-04-30T09:46:30;98346.13;;;17.05;59.41
11314;BME280;5712;48.858;9.206;2023-04-30T09:48:58;98338.94;;;16.96;57.95
11314;BME280;5712;48.858;9.206;2023-04-30T09:51:25;98332.50;;;16.99;58.32
11314;BME280;5712;48.858;9.206;2023-04-30T09:53:52;98325.34;;;16.99;57.57
11314;BME280;5712;48.858;9.206;2023-04-30T09:56:21;98326.47;;;16.97;56.87
11314;BME280;5712;48.858;9.206;2023-04-30T09:58:50;98319.44;;;16.96;56.50
11314;BME280;5712;48.858;9.206;2023-04-30T10:01:19;98270.09;;;16.81;53.24
11314;BME280;5712;48.858;9.206;2023-04-30T10:03:47;98330.13;;;16.77;58.00
11314;BME280;5712;48.858;9.206;2023-04-30T10:06:14;98329.00;;;16.79;57.77
11314;BME280;5712;48.858;9.206;2023-04-30T10:08:45;98327.88;;;16.91;57.82
11314;BME280;5712;48.858;9.206;2023-04-30T10:11:17;98332.66;;;17.07;57.47
11314;BME280;5712;48.858;9.206;2023-04-30T10:13:50;98309.88;;;17.12;56.34
11314;BME280;5712;48.858;9.206;2023-04-30T10:16:25;98321.25;;;17.24;56.07
11314;BME280;5712;48.858;9.206;2023-04-30T10:18:53;98314.91;;;17.34;56.75
11314;BME280;5712;48.858;9.206;2023-04-30T10:21:22;98315.19;;;17.31;56.00
11314;BME280;5712;48.858;9.206;2023-04-30T10:23:52;98326.03;;;17.39;57.54
11314;BME280;5712;48.858;9.206;2023-04-30T10:26:19;98347.81;;;17.44;58.50
11314;BME280;5712;48.858;9.206;2023-04-30T10:28:47;98285.78;;;17.41;54.03
11314;BME280;5712;48.858;9.206;2023-04-30T10:31:15;98277.22;;;17.37;53.52
11314;BME280;5712;48.858;9.206;2023-04-30T10:33:52;98299.16;;;17.22;54.47
11314;BME280;5712;48.858;9.206;2023-04-30T10:36:25;98306.63;;;17.18;55.64
11314;BME280;5712;48.858;9.206;2023-04-30T10:38:55;98308.03;;;17.22;55.72
11314;BME280;5712;48.858;9.206;2023-04-30T10:41:25;98306.50;;;17.39;55.34
11314;BME280;5712;48.858;9.206;2023-04-30T10:43:56;98300.13;;;17.49;54.80
11314;BME280;5712;48.858;9.206;2023-04-30T10:46:24;98296.06;;;17.45;54.40
11314;BME280;5712;48.858;9.206;2023-04-30T10:48:53;98276.94;;;17.50;53.13
11314;BME280;5712;48.858;9.206;2023-04-30T10:51:20;98304.44;;;17.60;55.21
11314;BME280;5712;48.858;9.206;2023-04-30T10:53:48;98295.16;;;17.64;54.60
11314;BME280;5712;48.858;9.206;2023-04-30T10:56:28;98301.75;;;17.69;54.72
11314;BME280;5712;48.858;9.206;2023-04-30T10:58:57;98283.31;;;17.76;53.42
11314;BME280;5712;48.858;9.206;2023-04-30T11:01:25;98283.34;;;17.66;53.05
11314;BME280;5712;48.858;9.206;2023-04-30T11:04:05;98274.91;;;17.61;52.68
11314;BME280;5712;48.858;9.206;2023-04-30T11:07:06;98263.34;;;17.70;52.15
11314;BME280;5712;48.858;9.206;2023-04-30T11:09:35;98276.28;;;17.75;52.84
11314;BME280;5712;48.858;9.206;2023-04-30T11:12:03;98265.41;;;17.86;52.63
11314;BME280;5712;48.858;9.206;2023-04-30T11:14:31;98252.38;;;18.00;51.68
11314;BME280;5712;48.858;9.206;2023-04-30T11:16:59;98287.38;;;18.07;53.70
11314;BME280;5712;48.858;9.206;2023-04-30T11:19:28;98278.03;;;18.20;53.08
11314;BME280;5712;48.858;9.206;2023-04-30T11:22:14;98284.13;;;18.30;53.29
11314;BME280;5712;48.858;9.206;2023-04-30T11:24:52;98269.81;;;18.31;52.70
11314;BME280;5712;48.858;9.206;2023-04-30T11:27:19;98274.25;;;18.40;53.23
11314;BME280;5712;48.858;9.206;2023-04-30T11:29:48;98243.41;;;18.36;50.80
11314;BME280;5712;48.858;9.206;2023-04-30T11:32:15;98248.44;;;18.22;51.78
11314;BME280;5712;48.858;9.206;2023-04-30T11:34:43;98250.47;;;18.10;51.45
11314;BME280;5712;48.858;9.206;2023-04-30T11:37:11;98245.44;;;18.07;51.81
11314;BME280;5712;48.858;9.206;2023-04-30T11:39:39;98252.16;;;18.11;52.35
11314;BME280;5712;48.858;9.206;2023-04-30T11:42:05;98268.75;;;18.15;52.40
11314;BME280;5712;48.858;9.206;2023-04-30T11:44:32;98260.28;;;18.19;52.68
11314;BME280;5712;48.858;9.206;2023-04-30T11:46:59;98274.94;;;18.15;54.08
11314;BME280;5712;48.858;9.206;2023-04-30T11:49:26;98232.94;;;18.25;51.27
11314;BME280;5712;48.858;9.206;2023-04-30T11:51:54;98250.81;;;18.25;52.94
11314;BME280;5712;48.858;9.206;2023-04-30T11:54:20;98253.19;;;18.28;53.20
11314;BME280;5712;48.858;9.206;2023-04-30T11:56:47;98227.22;;;18.38;50.91
11314;BME280;5712;48.858;9.206;2023-04-30T11:59:15;98252.56;;;18.43;52.54
11314;BME280;5712;48.858;9.206;2023-04-30T12:01:43;98253.84;;;18.39;53.44
11314;BME280;5712;48.858;9.206;2023-04-30T12:04:09;98247.19;;;18.43;52.78
11314;BME280;5712;48.858;9.206;2023-04-30T12:06:36;98247.88;;;18.45;53.21
11314;BME280;5712;48.858;9.206;2023-04-30T12:09:04;98230.53;;;18.49;51.62
11314;BME280;5712;48.858;9.206;2023-04-30T12:11:34;98206.34;;;18.41;50.65
11314;BME280;5712;48.858;9.206;2023-04-30T12:14:02;98239.59;;;18.39;52.43
11314;BME280;5712;48.858;9.206;2023-04-30T12:16:38;98204.59;;;18.32;50.10
11314;BME280;5712;48.858;9.206;2023-04-30T12:19:05;98220.16;;;18.19;51.47
11314;BME280;5712;48.858;9.206;2023-04-30T12:21:32;98253.78;;;18.22;53.63
11314;BME280;5712;48.858;9.206;2023-04-30T12:23:59;98238.28;;;18.25;52.68
11314;BME280;5712;48.858;9.206;2023-04-30T12:26:34;98225.59;;;18.27;52.15
11314;BME280;5712;48.858;9.206;2023-04-30T12:29:03;98234.03;;;18.32;52.29
11314;BME280;5712;48.858;9.206;2023-04-30T12:31:30;98217.84;;;18.24;50.92
11314;BME280;5712;48.858;9.206;2023-04-30T12:33:57;98230.25;;;18.25;52.35
11314;BME280;5712;48.858;9.206;2023-04-30T12:36:29;98232.53;;;18.20;52.12
11314;BME280;5712;48.858;9.206;2023-04-30T12:39:09;98231.22;;;18.24;52.56
11314;BME280;5712;48.858;9.206;2023-04-30T12:41:40;98217.75;;;18.16;51.45
11314;BME280;5712;48.858;9.206;2023-04-30T12:44:18;98223.13;;;18.16;51.96
11314;BME280;5712;48.858;9.206;2023-04-30T12:46:45;98208.22;;;18.14;51.00
11314;BME280;5712;48.858;9.206;2023-04-30T12:49:21;98193.00;;;18.14;50.02
11314;BME280;5712;48.858;9.206;2023-04-30T12:51:48;98210.34;;;18.10;50.93
11314;BME280;5712;48.858;9.206;2023-04-30T12:54:23;98212.94;;;18.02;51.64
11314;BME280;5712;48.858;9.206;2023-04-30T12:56:59;98238.16;;;18.00;52.86
11314;BME280;5712;48.858;9.206;2023-04-30T12:59:26;98224.91;;;17.98;53.05
11314;BME280;5712;48.858;9.206;2023-04-30T13:01:53;98208.69;;;17.82;52.29
11314;BME280;5712;48.858;9.206;2023-04-30T13:04:20;98204.72;;;17.86;51.89
11314;BME280;5712;48.858;9.206;2023-04-30T13:06:46;98219.69;;;17.79;53.14
11314;BME280;5712;48.858;9.206;2023-04-30T13:09:13;98207.72;;;17.83;52.38